Time;durP1;ratioP1;P1;durP2;ratioP2;P2;SDS_P1;SDS_P2;PMS_P1;PMS_P2;Temp;Humidity;BMP_temperature;BMP_pressure;BME280_temperature;BME280_humidity;BME280_pressure;Samples;Min_cycle;Max_cycle;Signal;HPM_P1;HPM_P2
2022/02/03 00:01:29;;;;;;;1.98;0.68;;;;;;;9.92;100.00;99940.19;5030042;28;20060;-79
2022/02/03 00:04:43;;;;;;;0.45;0.43;;;;;;;10.07;100.00;99949.41;5030912;28;20064;-79
2022/02/03 00:25:17;;;;;;;5.88;1.20;;;;;;;10.19;100.00;99926.22;5030834;28;20072;-79
2022/02/03 00:28:27;;;;;;;0.20;0.20;;;;;;;10.26;100.00;99925.09;5030107;28;20530;-80
2022/02/03 00:31:58;;;;;;;0.22;0.20;;;;;;;10.29;100.00;99911.00;5010211;28;20057;-79
2022/02/03 00:35:50;;;;;;;1.75;0.35;;;;;;;10.29;100.00;99916.56;5010277;28;20068;-80
2022/02/03 00:48:33;;;;;;;0.70;0.57;;;;;;;10.33;100.00;99917.16;5014574;28;20052;-80
2022/02/03 00:51:40;;;;;;;8.00;1.23;;;;;;;10.38;100.00;99908.16;5013028;28;20060;-80
2022/02/03 00:54:43;;;;;;;0.52;0.20;;;;;;;10.42;100.00;99891.28;5014393;28;20053;-80
2022/02/03 00:57:51;;;;;;;0.28;0.17;;;;;;;10.44;100.00;99886.78;5029562;28;20061;-79
2022/02/03 01:00:58;;;;;;;0.10;0.10;;;;;;;10.47;100.00;99891.41;5033801;28;20502;-79
2022/02/03 01:04:10;;;;;;;0.85;0.20;;;;;;;10.53;100.00;99874.81;5033942;28;20057;-80
2022/02/03 01:07:16;;;;;;;2.85;0.20;;;;;;;10.60;100.00;99885.59;5033926;28;20057;-80
2022/02/03 01:10:29;;;;;;;1.98;0.40;;;;;;;10.60;100.00;99875.25;5032883;28;20048;-80
2022/02/03 01:13:47;;;;;;;2.75;0.93;;;;;;;10.61;100.00;99885.13;5033944;28;20052;-79
2022/02/03 01:17:07;;;;;;;0.20;0.20;;;;;;;10.61;100.00;99876.00;5033858;28;20410;-80
2022/02/03 01:33:54;;;;;;;2.72;0.95;;;;;;;10.71;100.00;99832.13;5033277;28;20498;-80
2022/02/03 01:43:52;;;;;;;0.10;0.10;;;;;;;10.83;100.00;99809.59;5033099;28;20499;-79
2022/02/03 01:47:10;;;;;;;1.08;0.20;;;;;;;10.81;100.00;99802.94;5032995;28;20056;-79
2022/02/03 01:53:22;;;;;;;0.10;0.10;;;;;;;10.77;100.00;99780.09;5033076;28;20402;-79
2022/02/03 01:56:55;;;;;;;0.10;0.10;;;;;;;10.75;100.00;99788.16;5032431;28;20068;-80
2022/02/03 02:00:04;;;;;;;0.10;0.10;;;;;;;10.79;100.00;99788.72;5032192;28;20052;-79
2022/02/03 02:03:11;;;;;;;1.15;0.38;;;;;;;10.83;100.00;99775.41;5032605;28;20395;-80
2022/02/03 02:06:49;;;;;;;8.98;0.30;;;;;;;10.76;100.00;99773.00;5030974;28;20052;-80
2022/02/03 02:38:08;;;;;;;4.63;0.40;;;;;;;10.59;100.00;99755.94;5031589;28;20053;-79
2022/02/03 02:42:18;;;;;;;4.47;0.70;;;;;;;10.61;100.00;99753.50;5030909;28;20053;-80
2022/02/03 02:45:13;;;;;;;1.85;0.40;;;;;;;10.59;100.00;99740.03;5032233;28;20199;-80
2022/02/03 02:48:28;;;;;;;2.60;0.77;;;;;;;10.61;100.00;99745.13;5031941;28;20048;-79
2022/02/03 02:51:46;;;;;;;3.30;0.28;;;;;;;10.59;100.00;99728.09;5031882;28;20045;-81
2022/02/03 03:32:17;;;;;;;1.30;0.30;;;;;;;10.47;100.00;99665.91;5022749;28;20399;-80
2022/02/03 03:38:36;;;;;;;1.98;0.55;;;;;;;10.46;100.00;99658.03;5030668;28;20406;-80
2022/02/03 03:41:44;;;;;;;0.65;0.45;;;;;;;10.48;100.00;99652.75;5011755;28;20049;-80
2022/02/03 03:44:54;;;;;;;0.98;0.52;;;;;;;10.44;100.00;99644.59;5010895;28;20049;-80
2022/02/03 03:48:01;;;;;;;0.20;0.20;;;;;;;10.44;100.00;99641.03;5010742;28;20048;-80
2022/02/03 03:51:09;;;;;;;0.15;0.15;;;;;;;10.44;100.00;99636.22;5029126;28;20056;-80
2022/02/03 03:54:27;;;;;;;0.10;0.10;;;;;;;10.40;100.00;99640.44;5029893;28;20498;-80
2022/02/03 04:32:38;;;;;;;0.98;0.45;;;;;;;10.31;100.00;99591.22;5014797;28;20574;-81
2022/02/03 04:39:43;;;;;;;12.75;0.88;;;;;;;10.23;100.00;99581.72;5017316;28;20060;-81
2022/02/03 05:05:36;;;;;;;0.17;0.17;;;;;;;10.09;100.00;99556.66;5033973;28;20081;-80
2022/02/03 05:09:08;;;;;;;0.15;0.15;;;;;;;10.07;100.00;99548.75;5033213;28;20056;-80
2022/02/03 05:42:16;;;;;;;0.25;0.25;;;;;;;10.02;100.00;99535.53;5013664;28;20069;-80
2022/02/03 05:48:50;;;;;;;0.80;0.20;;;;;;;10.03;100.00;99537.06;5013097;28;20411;-80
2022/02/03 06:02:06;;;;;;;0.10;0.10;;;;;;;9.98;100.00;99518.28;5033305;28;20510;-81
2022/02/03 06:08:53;;;;;;;0.10;0.10;;;;;;;9.51;100.00;99515.63;5032854;28;20510;-81
2022/02/03 06:15:13;;;;;;;0.10;0.10;;;;;;;9.54;100.00;99525.78;5032882;28;20502;-80
2022/02/03 06:21:56;;;;;;;0.30;0.15;;;;;;;9.62;100.00;99507.50;5012739;28;20502;-80
2022/02/03 06:28:04;;;;;;;0.45;0.30;;;;;;;9.18;100.00;99527.59;5032423;28;20052;-80
2022/02/03 06:31:07;;;;;;;8.18;0.82;;;;;;;9.40;100.00;99512.66;5031415;28;20049;-80
2022/02/03 06:34:12;;;;;;;0.10;0.10;;;;;;;9.46;100.00;99521.84;5031482;28;20076;-81
2022/02/03 06:37:15;;;;;;;0.20;0.13;;;;;;;9.40;100.00;99512.66;5031240;28;20395;-79
2022/02/03 06:40:19;;;;;;;29.25;2.97;;;;;;;9.41;100.00;99508.59;5030845;28;20061;-79
2022/02/03 06:43:22;;;;;;;3.95;1.83;;;;;;;9.42;100.00;99502.56;5031540;28;20048;-79
2022/02/03 06:46:27;;;;;;;13.85;2.55;;;;;;;9.41;100.00;99511.38;5031186;28;20053;-80
2022/02/03 06:50:17;;;;;;;11.07;1.67;;;;;;;9.36;100.00;99506.47;5031220;28;20407;-80
2022/02/03 06:53:10;;;;;;;26.42;4.32;;;;;;;9.37;100.00;99513.59;5032142;28;20529;-81
2022/02/03 06:57:02;;;;;;;5.00;0.80;;;;;;;9.37;100.00;99503.25;5032141;28;20076;-80
2022/02/03 06:59:53;;;;;;;6.70;1.23;;;;;;;9.34;100.00;99500.63;5032679;28;20079;-80
2022/02/03 07:02:59;;;;;;;8.88;1.00;;;;;;;9.39;100.00;99499.97;5031358;28;20052;-79
2022/02/03 07:06:03;;;;;;;1.65;1.42;;;;;;;9.37;100.00;99488.56;5031208;28;20399;-80
2022/02/03 07:09:08;;;;;;;0.95;0.35;;;;;;;9.31;100.00;99491.25;5031270;28;20053;-80
2022/02/03 07:12:12;;;;;;;0.65;0.65;;;;;;;9.27;100.00;99487.88;5030922;28;20509;-81
2022/02/03 07:15:16;;;;;;;5.32;1.60;;;;;;;9.28;100.00;99491.44;5031138;28;20061;-81
2022/02/03 07:18:20;;;;;;;3.40;1.65;;;;;;;9.26;100.00;99493.91;5031054;28;20053;-80
2022/02/03 07:21:23;;;;;;;1.10;0.50;;;;;;;9.26;100.00;99482.81;5032210;28;20498;-81
2022/02/03 07:24:27;;;;;;;1.42;0.70;;;;;;;9.26;100.00;99491.91;5019986;28;20084;-81
2022/02/03 07:27:30;;;;;;;1.23;0.43;;;;;;;9.26;100.00;99488.34;5018881;28;20056;-80
2022/02/03 07:30:34;;;;;;;0.65;0.30;;;;;;;9.27;100.00;99489.91;5030558;28;20048;-81
2022/02/03 07:33:38;;;;;;;0.10;0.10;;;;;;;9.25;100.00;99482.03;5031502;28;20139;-80
2022/02/03 07:36:44;;;;;;;3.13;0.32;;;;;;;9.22;100.00;99480.22;5031485;28;20053;-80
2022/02/03 07:39:48;;;;;;;0.68;0.52;;;;;;;9.26;100.00;99475.25;5030648;28;20060;-80
2022/02/03 07:42:54;;;;;;;0.38;0.20;;;;;;;9.25;100.00;99461.84;5031159;28;20076;-80
2022/02/03 07:45:58;;;;;;;0.20;0.20;;;;;;;9.22;100.00;99465.56;5030815;28;20053;-79
2022/02/03 07:49:02;;;;;;;2.75;1.05;;;;;;;9.21;100.00;99469.56;5030947;28;20056;-80
2022/02/03 07:52:06;;;;;;;0.93;0.85;;;;;;;9.22;100.00;99473.88;5031396;28;20052;-80
2022/02/03 07:55:11;;;;;;;0.80;0.40;;;;;;;9.22;100.00;99485.00;5021812;28;20053;-80
2022/02/03 07:58:15;;;;;;;0.20;0.10;;;;;;;9.18;100.00;99468.53;5033120;28;20061;-80
2022/02/03 08:01:18;;;;;;;0.57;0.50;;;;;;;9.19;100.00;99475.59;5033158;28;20183;-80
2022/02/03 08:04:27;;;;;;;0.17;0.15;;;;;;;9.20;100.00;99476.38;5011234;28;20064;-80
2022/02/03 08:07:33;;;;;;;1.90;0.43;;;;;;;9.18;100.00;99478.84;5033465;28;20049;-79
2022/02/03 08:10:41;;;;;;;0.40;0.40;;;;;;;9.18;100.00;99480.38;5047436;28;20060;-80
2022/02/03 08:17:01;;;;;;;2.05;0.35;;;;;;;9.06;100.00;99483.41;5031102;28;20052;-80
2022/02/03 08:20:10;;;;;;;0.63;0.40;;;;;;;8.93;100.00;99486.44;5021547;28;20057;-80
2022/02/03 08:30:04;;;;;;;0.20;0.20;;;;;;;8.79;100.00;99478.06;5030395;28;20048;-78
2022/02/03 08:32:59;;;;;;;0.20;0.20;;;;;;;8.75;100.00;99469.88;5030281;28;20052;-78
2022/02/03 08:36:06;;;;;;;0.32;0.32;;;;;;;8.72;100.00;99476.41;5030706;28;20057;-78
2022/02/03 08:39:11;;;;;;;0.10;0.10;;;;;;;8.78;100.00;99482.84;5030778;28;20057;-79
2022/02/03 08:42:15;;;;;;;0.10;0.10;;;;;;;8.96;100.00;99479.19;5030175;28;20068;-79
2022/02/03 08:45:18;;;;;;;0.30;0.30;;;;;;;9.32;100.00;99469.78;5030560;28;20056;-79
2022/02/03 08:48:22;;;;;;;1.65;0.20;;;;;;;9.67;100.00;99465.91;5028161;28;20056;-79
2022/02/03 08:51:25;;;;;;;1.02;0.40;;;;;;;9.87;100.00;99456.91;5021916;28;20132;-79
2022/02/03 08:54:33;;;;;;;1.20;0.55;;;;;;;9.92;100.00;99458.97;5020737;28;20049;-79
2022/02/03 08:58:56;;;;;;;0.40;0.30;;;;;;;9.88;100.00;99453.63;5022180;28;20046;-79
2022/02/03 09:58:28;;;;;;;0.13;0.05;;;;;;;11.38;100.00;99430.63;5013064;28;20053;-79
2022/02/03 10:01:36;;;;;;;0.10;0.00;;;;;;;11.39;100.00;99415.44;5020885;28;20056;-80
2022/02/03 10:05:32;;;;;;;0.10;0.10;;;;;;;11.54;100.00;99410.50;5033445;28;20057;-80
2022/02/03 10:08:12;;;;;;;2.45;0.30;;;;;;;11.63;100.00;99409.56;5034511;28;20056;-80
2022/02/03 10:11:22;;;;;;;0.25;0.25;;;;;;;11.75;100.00;99403.63;5032026;28;20072;-81
2022/02/03 10:14:38;;;;;;;0.10;0.03;;;;;;;11.79;100.00;99393.00;5032694;28;20048;-79
2022/02/03 10:17:46;;;;;;;0.10;0.10;;;;;;;11.82;100.00;99383.66;5032785;28;20056;-82
2022/02/03 10:20:49;;;;;;;0.10;0.10;;;;;;;11.79;100.00;99376.25;5031378;28;20056;-79
2022/02/03 10:24:00;;;;;;;1.27;0.20;;;;;;;11.73;100.00;99375.47;5032487;28;20053;-80
2022/02/03 10:27:04;;;;;;;0.45;0.45;;;;;;;11.69;100.00;99377.72;5011907;28;20057;-80
2022/02/03 10:30:25;;;;;;;0.35;0.10;;;;;;;11.64;100.00;99370.03;5023831;28;20060;-79
2022/02/03 10:33:30;;;;;;;;;;;;;;;11.60;100.00;99368.72;5023502;28;20057;-79
2022/02/03 10:43:50;;;;;;;0.30;0.20;;;;;;;11.86;100.00;99370.25;5032502;28;20065;-79
2022/02/03 10:50:15;;;;;;;0.77;0.30;;;;;;;11.99;100.00;99392.91;5031795;28;20052;-78
2022/02/03 10:57:13;;;;;;;0.10;0.10;;;;;;;12.15;100.00;99395.03;5031631;28;20057;-78
2022/02/03 11:00:54;;;;;;;0.63;0.47;;;;;;;12.21;100.00;99399.91;5031622;28;20403;-78
2022/02/03 11:07:05;;;;;;;4.55;0.95;;;;;;;12.29;100.00;99404.53;5031425;28;20395;-78
2022/02/03 11:13:34;;;;;;;2.33;0.65;;;;;;;12.41;100.00;99413.75;5031602;28;20498;-78
2022/02/03 11:16:39;;;;;;;0.65;0.40;;;;;;;12.45;100.00;99397.53;5031097;28;20049;-78
2022/02/03 11:19:49;;;;;;;2.13;1.08;;;;;;;12.53;100.00;99404.16;5030154;28;20072;-77
2022/02/03 11:23:07;;;;;;;0.20;0.10;;;;;;;12.55;100.00;99394.03;5031458;28;20052;-78
2022/02/03 11:50:19;;;;;;;1.35;0.30;;;;;;;13.46;100.00;99353.41;5024076;28;20073;-80
2022/02/03 12:03:11;;;;;;;4.60;0.25;;;;;;;13.58;100.00;99337.38;5031695;28;20052;-80
2022/02/03 12:10:41;;;;;;;2.85;0.20;;;;;;;13.85;100.00;99330.25;5030946;28;20426;-80
2022/02/03 12:17:28;;;;;;;0.75;0.52;;;;;;;13.94;100.00;99310.38;5030779;28;20505;-80
2022/02/03 12:20:39;;;;;;;2.40;0.82;;;;;;;14.07;100.00;99313.41;5030017;28;20056;-81
2022/02/03 12:24:10;;;;;;;9.73;0.63;;;;;;;14.16;100.00;99324.34;5029768;28;20053;-81
2022/02/03 12:27:47;;;;;;;0.50;0.10;;;;;;;14.06;100.00;99318.25;5011212;28;20053;-80
2022/02/03 12:44:06;;;;;;;0.20;0.20;;;;;;;14.26;100.00;99292.75;5034254;28;20052;-78
2022/02/03 12:47:12;;;;;;;0.30;0.20;;;;;;;14.22;100.00;99288.69;5033402;28;20132;-83
2022/02/03 12:50:31;;;;;;;10.32;0.75;;;;;;;14.13;100.00;99283.34;5034118;28;20056;-80
2022/02/03 12:53:38;;;;;;;0.43;0.32;;;;;;;14.00;100.00;99285.94;5034009;28;20418;-80
2022/02/03 12:56:42;;;;;;;0.63;0.17;;;;;;;13.92;100.00;99282.16;5034791;28;20056;-79
2022/02/03 12:59:48;;;;;;;0.98;0.40;;;;;;;13.84;100.00;99276.28;5033726;28;20064;-80
2022/02/03 13:02:52;;;;;;;0.60;0.22;;;;;;;13.77;100.00;99284.47;5033047;28;20406;-80
2022/02/03 13:06:02;;;;;;;8.20;1.30;;;;;;;13.75;100.00;99287.00;5024907;28;20049;-80
2022/02/03 13:09:08;;;;;;;2.08;0.40;;;;;;;13.84;100.00;99278.34;5015260;28;20057;-80
2022/02/03 13:12:24;;;;;;;0.45;0.45;;;;;;;13.88;100.00;99273.25;5032772;28;20072;-80
2022/02/03 13:15:39;;;;;;;1.60;0.35;;;;;;;13.99;100.00;99267.63;5033823;28;20056;-80
2022/02/03 13:18:48;;;;;;;0.10;0.10;;;;;;;13.97;100.00;99261.78;5033304;28;20068;-80
2022/02/03 13:25:49;;;;;;;7.40;2.80;;;;;;;13.89;100.00;99275.53;5033401;28;20052;-80
2022/02/03 13:28:56;;;;;;;0.85;0.45;;;;;;;14.06;100.00;99267.84;5033380;28;20053;-80
2022/02/03 13:32:08;;;;;;;4.70;0.43;;;;;;;14.19;100.00;99281.28;5024202;28;20052;-81
2022/02/03 13:35:27;;;;;;;1.23;0.90;;;;;;;14.31;100.00;99272.38;5033024;28;20286;-80
2022/02/03 13:38:44;;;;;;;8.98;2.15;;;;;;;14.31;100.00;99266.03;5033682;28;20052;-80
2022/02/03 13:41:50;;;;;;;100.40;27.35;;;;;;;14.34;100.00;99259.38;5012407;28;20426;-80
2022/02/03 13:45:03;;;;;;;4.30;1.35;;;;;;;14.34;100.00;99248.16;5012968;28;20045;-81
2022/02/03 13:48:16;;;;;;;21.70;6.22;;;;;;;14.43;100.00;99245.84;5012603;28;20072;-81
2022/02/03 13:51:28;;;;;;;8.35;1.75;;;;;;;14.49;100.00;99243.00;5029379;28;20502;-81
2022/02/03 13:54:53;;;;;;;3.30;1.10;;;;;;;14.42;100.00;99235.16;5012172;28;20057;-80
2022/02/03 14:15:13;;;;;;;3.90;0.98;;;;;;;14.04;100.00;99225.59;5032249;28;20053;-80
2022/02/03 14:21:59;;;;;;;15.07;3.72;;;;;;;14.31;100.00;99216.34;5032048;28;20064;-80
2022/02/03 14:28:19;;;;;;;1.55;1.00;;;;;;;14.23;100.00;99195.72;5032810;28;20061;-80
2022/02/03 14:31:22;;;;;;;4.70;0.85;;;;;;;14.17;100.00;99195.00;5018048;28;20060;-80
2022/02/03 14:34:32;;;;;;;6.18;1.02;;;;;;;14.08;100.00;99191.72;5031404;28;20056;-80
2022/02/03 14:37:45;;;;;;;3.95;0.68;;;;;;;14.07;100.00;99190.22;5031746;28;20049;-79
2022/02/03 14:41:09;;;;;;;3.00;0.90;;;;;;;14.13;100.00;99182.56;5031940;28;20426;-81
2022/02/03 14:44:15;;;;;;;6.38;1.45;;;;;;;14.15;100.00;99175.16;5031227;28;20048;-81
2022/02/03 14:47:22;;;;;;;2.70;0.95;;;;;;;14.14;100.00;99184.09;5031401;28;20498;-80
2022/02/03 14:50:25;;;;;;;4.63;1.48;;;;;;;14.20;100.00;99182.78;5030951;28;20513;-81
2022/02/03 14:53:48;;;;;;;0.13;0.13;;;;;;;14.24;100.00;99171.31;5030737;28;20056;-80
2022/02/03 15:00:15;;;;;;;7.88;0.60;;;;;;;14.16;100.00;99173.88;5020249;28;20151;-80
2022/02/03 15:03:20;;;;;;;1.45;0.52;;;;;;;14.25;100.00;99172.84;5033588;28;20057;-81
2022/02/03 15:06:27;;;;;;;0.40;0.30;;;;;;;14.23;100.00;99172.56;5010607;28;20061;-80
2022/02/03 15:13:02;;;;;;;0.35;0.22;;;;;;;14.15;100.00;99166.00;5031521;28;20817;-79
2022/02/03 15:16:08;;;;;;;3.80;0.68;;;;;;;14.07;100.00;99165.03;5030915;28;20494;-80
2022/02/03 15:19:11;;;;;;;1.60;1.17;;;;;;;13.96;100.00;99168.63;5031166;28;20415;-80
2022/02/03 15:22:15;;;;;;;1.10;0.20;;;;;;;13.83;100.00;99170.47;5030502;28;20099;-81
2022/02/03 15:25:19;;;;;;;1.42;0.15;;;;;;;13.75;100.00;99172.28;5030761;28;20050;-80
2022/02/03 15:28:23;;;;;;;0.88;0.28;;;;;;;13.72;100.00;99164.91;5030458;28;20068;-81
2022/02/03 15:31:31;;;;;;;0.93;0.25;;;;;;;13.66;100.00;99170.53;5018230;28;20056;-80
2022/02/03 15:34:34;;;;;;;0.70;0.28;;;;;;;13.55;100.00;99162.94;5030912;28;20475;-81
2022/02/03 15:37:38;;;;;;;0.52;0.22;;;;;;;13.58;100.00;99167.47;5031138;28;20407;-79
2022/02/03 15:40:42;;;;;;;0.40;0.20;;;;;;;13.55;100.00;99157.34;5030688;28;20056;-82
2022/02/03 15:43:45;;;;;;;1.98;0.20;;;;;;;13.50;100.00;99163.69;5030401;28;20171;-79
2022/02/03 15:47:03;;;;;;;0.57;0.20;;;;;;;13.42;100.00;99165.50;5031032;28;20076;-78
2022/02/03 15:57:32;;;;;;;0.10;0.10;;;;;;;13.26;100.00;99162.72;5030912;28;20060;-79
2022/02/03 16:04:21;;;;;;;0.65;0.10;;;;;;;13.16;100.00;99165.03;5030417;28;20052;-79
2022/02/03 16:17:17;;;;;;;0.10;0.10;;;;;;;13.02;100.00;99143.66;5034568;28;20048;-79
2022/02/03 16:20:25;;;;;;;0.10;0.10;;;;;;;12.97;100.00;99147.22;5034099;28;20057;-78
2022/02/03 16:32:01;;;;;;;0.10;0.10;;;;;;;12.85;100.00;99159.66;5034616;28;20064;-77
2022/02/03 16:53:21;;;;;;;0.10;0.08;;;;;;;12.59;100.00;99125.63;5017273;28;20064;-78
2022/02/03 16:56:26;;;;;;;4.38;0.45;;;;;;;12.56;100.00;99130.19;5026453;28;20049;-78
2022/02/03 16:59:33;;;;;;;0.52;0.30;;;;;;;12.46;100.00;99136.53;5017293;28;20061;-79
2022/02/03 17:02:37;;;;;;;1.15;0.45;;;;;;;12.40;100.00;99135.75;5030897;28;20052;-77
2022/02/03 17:05:41;;;;;;;0.10;0.10;;;;;;;12.33;100.00;99136.25;5033024;28;20060;-80
2022/02/03 17:08:44;;;;;;;0.75;0.65;;;;;;;12.28;100.00;99131.44;5019925;28;20052;-78
2022/02/03 17:11:48;;;;;;;0.30;0.20;;;;;;;12.19;100.00;99129.63;5020681;28;20052;-77
2022/02/03 17:14:54;;;;;;;1.20;0.32;;;;;;;12.10;100.00;99133.44;5033004;28;20473;-76
2022/02/03 17:17:58;;;;;;;0.10;0.10;;;;;;;11.93;100.00;99127.00;5014189;28;20636;-75
2022/02/03 17:21:02;;;;;;;1.10;0.57;;;;;;;11.90;100.00;99130.03;5028309;28;20060;-78
2022/02/03 17:24:08;;;;;;;0.10;0.10;;;;;;;11.86;100.00;99123.94;5030874;28;20467;-78
2022/02/03 17:27:22;;;;;;;0.30;0.20;;;;;;;11.92;100.00;99116.34;5012241;28;20408;-78
2022/02/03 18:10:27;;;;;;;1.67;0.95;;;;;;;12.13;100.00;99098.91;5030915;28;20061;-77
2022/02/03 18:30:32;;;;;;;1.48;0.70;;;;;;;12.15;100.00;99076.84;5031345;28;20052;-76
2022/02/03 18:50:53;;;;;;;0.70;0.47;;;;;;;12.22;100.00;99041.31;5031391;28;20060;-77
2022/02/03 19:28:21;;;;;;;4.53;0.75;;;;;;;11.85;100.00;98985.72;5010622;28;20057;-77
2022/02/03 20:10:39;;;;;;;0.10;0.10;;;;;;;12.44;100.00;98958.31;5030051;28;20494;-78
2022/02/03 20:13:43;;;;;;;0.10;0.10;;;;;;;12.47;100.00;98954.50;5031118;28;20052;-76
2022/02/03 20:16:47;;;;;;;0.85;0.32;;;;;;;12.53;100.00;98957.28;5030395;28;20052;-76
2022/02/03 20:19:51;;;;;;;1.55;0.38;;;;;;;12.54;100.00;98942.06;5030270;28;20057;-76
2022/02/03 20:22:54;;;;;;;0.52;0.10;;;;;;;12.43;100.00;98939.28;5030379;28;20057;-78
2022/02/03 20:25:58;;;;;;;3.75;0.50;;;;;;;12.41;100.00;98934.19;5030091;28;20411;-77
2022/02/03 20:29:02;;;;;;;2.28;0.22;;;;;;;12.45;100.00;98928.38;5029922;28;20498;-77
2022/02/03 20:32:06;;;;;;;0.25;0.15;;;;;;;12.48;100.00;98932.91;5030900;28;20049;-78
2022/02/03 20:35:11;;;;;;;8.93;0.52;;;;;;;12.40;100.00;98931.91;5030344;28;20053;-77
2022/02/03 20:38:15;;;;;;;5.25;0.52;;;;;;;12.43;100.00;98925.31;5029908;28;20061;-78
2022/02/03 20:41:21;;;;;;;0.10;0.10;;;;;;;12.54;100.00;98930.88;5030595;28;20052;-78
2022/02/03 20:44:24;;;;;;;0.63;0.50;;;;;;;12.46;100.00;98924.28;5030567;28;20412;-78
2022/02/03 20:47:30;;;;;;;0.22;0.22;;;;;;;12.48;100.00;98919.72;5030323;28;20053;-79
2022/02/03 20:50:36;;;;;;;0.10;0.10;;;;;;;12.50;100.00;98905.22;5032445;28;20056;-78
2022/02/03 20:53:40;;;;;;;0.10;0.10;;;;;;;12.47;100.00;98898.66;5032485;28;20048;-78
2022/02/03 20:56:43;;;;;;;0.80;0.30;;;;;;;12.48;100.00;98896.59;5032959;28;20054;-78
2022/02/03 21:03:04;;;;;;;0.55;0.28;;;;;;;12.48;100.00;98882.66;5033738;28;20057;-78
2022/02/03 21:06:14;;;;;;;0.10;0.10;;;;;;;12.40;100.00;98874.06;5033564;28;20048;-79
2022/02/03 21:09:17;;;;;;;0.10;0.05;;;;;;;12.33;100.00;98865.44;5032479;28;20064;-78
2022/02/03 21:12:21;;;;;;;0.10;0.10;;;;;;;12.24;100.00;98854.53;5032786;28;20060;-78
2022/02/03 21:15:34;;;;;;;10.38;0.55;;;;;;;12.17;100.00;98859.38;5018788;28;20068;-78
2022/02/03 21:18:41;;;;;;;0.22;0.00;;;;;;;12.19;100.00;98856.81;5013571;28;20498;-78
2022/02/03 21:21:45;;;;;;;0.10;0.10;;;;;;;12.20;100.00;98852.00;5013602;28;20053;-78
2022/02/03 21:24:48;;;;;;;0.25;0.25;;;;;;;12.24;100.00;98851.75;5033934;28;20053;-78
2022/02/03 21:27:55;;;;;;;0.35;0.35;;;;;;;12.22;100.00;98855.06;5013472;28;20080;-79
2022/02/03 21:31:00;;;;;;;0.10;0.10;;;;;;;12.23;100.00;98841.88;5029241;28;20057;-79
2022/02/03 21:34:09;;;;;;;0.10;0.10;;;;;;;12.15;100.00;98847.19;5031728;28;20065;-79
2022/02/03 21:37:13;;;;;;;5.97;0.30;;;;;;;12.08;100.00;98851.25;5033128;28;20057;-79
2022/02/03 21:40:18;;;;;;;0.10;0.10;;;;;;;12.08;100.00;98851.25;5032393;28;20056;-81
2022/02/03 21:43:21;;;;;;;0.10;0.10;;;;;;;12.17;100.00;98859.38;5032337;28;20060;-80
2022/02/03 21:46:25;;;;;;;0.10;0.10;;;;;;;12.21;100.00;98852.78;5032714;28;20052;-80
2022/02/03 21:49:28;;;;;;;0.63;0.28;;;;;;;12.19;100.00;98851.25;5032866;28;20411;-79
2022/02/03 21:52:39;;;;;;;1.50;0.57;;;;;;;12.31;100.00;98863.16;5031844;28;20423;-80
2022/02/03 21:55:44;;;;;;;1.02;0.35;;;;;;;12.31;100.00;98840.06;5016902;28;20057;-79
2022/02/03 21:58:48;;;;;;;0.43;0.15;;;;;;;12.26;100.00;98835.25;5011324;28;20053;-78
2022/02/03 22:01:52;;;;;;;0.15;0.15;;;;;;;12.19;100.00;98826.13;5031957;28;20060;-83
2022/02/03 22:04:56;;;;;;;1.77;0.73;;;;;;;12.08;100.00;98812.19;5029654;28;20056;-79
2022/02/03 22:08:00;;;;;;;0.28;0.10;;;;;;;12.06;100.00;98811.94;5032421;28;20048;-79
2022/02/03 22:11:03;;;;;;;0.60;0.52;;;;;;;12.01;100.00;98811.97;5031585;28;20076;-79
2022/02/03 22:14:06;;;;;;;2.97;0.93;;;;;;;12.00;100.00;98816.78;5031421;28;20159;-79
2022/02/03 22:17:11;;;;;;;0.15;0.10;;;;;;;11.80;100.00;98814.28;5030743;28;20403;-79
2022/02/03 22:20:40;;;;;;;7.88;0.30;;;;;;;11.74;100.00;98810.75;5030940;28;20056;-79
2022/02/03 22:23:59;;;;;;;0.50;0.40;;;;;;;11.69;100.00;98819.88;5030650;28;20056;-78
2022/02/03 22:41:37;;;;;;;1.27;0.30;;;;;;;11.92;100.00;98809.44;5031025;28;20048;-82
2022/02/03 22:44:05;;;;;;;3.00;0.30;;;;;;;12.07;100.00;98816.28;5032195;28;20060;-83
2022/02/03 22:50:18;;;;;;;1.33;0.35;;;;;;;12.36;100.00;98798.19;5031376;28;20048;-79
2022/02/03 22:53:23;;;;;;;5.68;0.80;;;;;;;12.35;100.00;98801.47;5031614;28;20395;-78
2022/02/03 22:56:27;;;;;;;0.35;0.15;;;;;;;12.37;100.00;98794.09;5031507;28;20056;-79
2022/02/03 23:02:48;;;;;;;3.17;0.50;;;;;;;12.40;100.00;98781.91;5031819;28;20056;-77
2022/02/03 23:05:52;;;;;;;0.47;0.22;;;;;;;12.38;100.00;98778.09;5031457;28;20419;-78
2022/02/03 23:09:05;;;;;;;2.58;1.10;;;;;;;12.33;100.00;98778.88;5031360;28;20052;-77
2022/02/03 23:12:16;;;;;;;4.00;1.23;;;;;;;12.40;100.00;98779.13;5030515;28;20060;-78
2022/02/03 23:18:58;;;;;;;2.17;0.93;;;;;;;12.33;100.00;98765.69;5031681;28;20403;-78
2022/02/03 23:22:20;;;;;;;0.40;0.40;;;;;;;12.36;100.00;98769.50;5031596;28;20510;-78
2022/02/03 23:25:23;;;;;;;0.32;0.13;;;;;;;12.38;100.00;98744.59;5031269;28;20056;-78
2022/02/03 23:28:30;;;;;;;0.20;0.10;;;;;;;12.45;100.00;98749.66;5030460;28;20406;-77
2022/02/03 23:31:52;;;;;;;0.30;0.20;;;;;;;12.57;100.00;98739.94;5012115;28;20072;-77
2022/02/03 23:35:15;;;;;;;0.17;0.17;;;;;;;12.60;100.00;98727.75;5016591;28;20052;-78
